Time;durP1;ratioP1;P1;durP2;ratioP2;P2;SDS_P1;SDS_P2;PMS_P1;PMS_P2;Temp;Humidity;BMP_temperature;BMP_pressure;BME280_temperature;BME280_humidity;BME280_pressure;Samples;Min_cycle;Max_cycle;Signal;HPM_P1;HPM_P2
2022/11/23 00:00:37;;;;;;;10.47;4.60;;;2.30;99.90;;;;;;5049777;28;20465;-57
2022/11/23 00:03:03;;;;;;;8.03;4.70;;;2.30;99.90;;;;;;5035493;28;20190;-56
2022/11/23 00:05:30;;;;;;;9.03;4.83;;;2.30;99.90;;;;;;5026308;28;20484;-56
2022/11/23 00:07:55;;;;;;;9.40;5.00;;;2.30;99.90;;;;;;5030325;28;20515;-56
2022/11/23 00:10:21;;;;;;;8.70;4.17;;;2.30;99.90;;;;;;5029370;28;20927;-57
2022/11/23 00:12:47;;;;;;;9.30;5.03;;;2.30;99.90;;;;;;5024426;28;20186;-55
2022/11/23 00:15:14;;;;;;;9.57;4.57;;;2.30;99.90;;;;;;5029691;28;20281;-55
2022/11/23 00:17:40;;;;;;;11.30;4.47;;;2.30;99.90;;;;;;5027270;28;20418;-57
2022/11/23 00:20:07;;;;;;;10.87;5.00;;;2.30;99.90;;;;;;5020887;28;20806;-56
2022/11/23 00:22:33;;;;;;;12.90;5.10;;;2.30;99.90;;;;;;5024267;28;20790;-57
2022/11/23 00:24:59;;;;;;;8.37;4.33;;;2.40;99.90;;;;;;5025337;28;20450;-57
2022/11/23 00:27:24;;;;;;;10.20;4.90;;;2.40;99.90;;;;;;5019806;28;20431;-58
2022/11/23 00:29:50;;;;;;;7.80;4.77;;;2.40;99.90;;;;;;5021216;28;20557;-57
2022/11/23 00:32:16;;;;;;;7.93;3.93;;;2.30;99.90;;;;;;5043798;28;20240;-65
2022/11/23 00:34:41;;;;;;;8.83;3.97;;;2.30;99.90;;;;;;5047741;28;20199;-58
2022/11/23 00:37:07;;;;;;;6.93;5.40;;;2.30;99.90;;;;;;5049375;28;20239;-59
2022/11/23 00:39:32;;;;;;;15.53;6.07;;;2.30;99.90;;;;;;5037557;28;20182;-56
2022/11/23 00:41:58;;;;;;;13.10;6.13;;;2.30;99.90;;;;;;5018463;28;20567;-55
2022/11/23 00:44:24;;;;;;;10.67;4.83;;;2.20;99.90;;;;;;5022010;28;20254;-55
2022/11/23 00:46:49;;;;;;;11.00;4.90;;;2.30;99.90;;;;;;5022929;28;20712;-56
2022/11/23 00:49:15;;;;;;;8.40;4.87;;;2.30;99.90;;;;;;5021985;28;20175;-56
2022/11/23 00:51:41;;;;;;;10.10;4.43;;;2.30;99.90;;;;;;5020730;28;20171;-57
2022/11/23 00:54:07;;;;;;;7.43;4.70;;;2.30;99.90;;;;;;5020103;28;20450;-57
2022/11/23 00:56:34;;;;;;;7.43;4.03;;;2.20;99.90;;;;;;5027523;28;20177;-55
2022/11/23 00:59:01;;;;;;;10.70;4.23;;;2.20;99.90;;;;;;5024103;28;20179;-57
2022/11/23 01:01:29;;;;;;;9.87;5.27;;;2.10;99.90;;;;;;5026137;28;20462;-55
2022/11/23 01:03:57;;;;;;;9.37;6.60;;;2.10;99.90;;;;;;5021708;28;20434;-56
2022/11/23 01:06:25;;;;;;;11.37;5.67;;;2.00;99.90;;;;;;5022333;28;20429;-57
2022/11/23 01:08:59;;;;;;;13.30;6.90;;;1.90;99.90;;;;;;5017760;28;20432;-57
2022/11/23 01:11:27;;;;;;;13.70;6.20;;;1.90;99.90;;;;;;5016166;28;20435;-56
2022/11/23 01:13:53;;;;;;;13.10;6.40;;;1.90;99.90;;;;;;5021847;28;20883;-56
2022/11/23 01:16:22;;;;;;;9.60;5.63;;;1.80;99.90;;;;;;5025658;28;20686;-56
2022/11/23 01:18:54;;;;;;;9.07;4.87;;;1.70;99.90;;;;;;5027754;28;20182;-56
2022/11/23 01:21:19;;;;;;;13.40;5.97;;;1.70;99.90;;;;;;5018491;28;20463;-56
2022/11/23 01:23:45;;;;;;;13.80;6.17;;;1.70;99.90;;;;;;5024319;28;20430;-56
2022/11/23 01:26:10;;;;;;;13.07;6.37;;;1.70;99.90;;;;;;5020213;28;20173;-57
2022/11/23 01:28:38;;;;;;;14.87;6.17;;;1.70;99.90;;;;;;5016684;28;21465;-56
2022/11/23 01:31:09;;;;;;;12.63;5.63;;;1.70;99.90;;;;;;5018892;28;20196;-57
2022/11/23 01:33:36;;;;;;;15.70;5.87;;;1.60;99.90;;;;;;5022252;28;20441;-55
2022/11/23 01:36:13;;;;;;;12.10;5.53;;;1.60;99.90;;;;;;5020791;28;20493;-56
2022/11/23 01:38:39;;;;;;;12.10;5.53;;;1.50;99.90;;;;;;5021397;28;20425;-56
2022/11/23 01:41:07;;;;;;;7.43;5.03;;;1.50;99.90;;;;;;5019066;28;20663;-56
2022/11/23 01:43:33;;;;;;;8.50;5.10;;;1.50;99.90;;;;;;5020636;28;20424;-56
2022/11/23 01:45:59;;;;;;;11.93;5.43;;;1.40;99.90;;;;;;5022445;28;21054;-57
2022/11/23 01:48:43;;;;;;;10.70;5.47;;;1.40;99.90;;;;;;5021510;28;20522;-57
2022/11/23 01:51:17;;;;;;;10.00;5.30;;;1.30;99.90;;;;;;5019343;28;20966;-56
2022/11/23 01:53:44;;;;;;;11.03;5.10;;;1.30;99.90;;;;;;5024503;28;20418;-57
2022/11/23 01:56:15;;;;;;;12.40;4.70;;;1.20;99.90;;;;;;5027247;28;20434;-55
2022/11/23 01:58:45;;;;;;;11.40;4.80;;;1.20;99.90;;;;;;5025188;28;20429;-56
2022/11/23 02:01:11;;;;;;;8.13;4.63;;;1.20;99.90;;;;;;5014565;28;20473;-56
2022/11/23 02:03:38;;;;;;;9.07;4.50;;;1.20;99.90;;;;;;5024215;28;20435;-55
2022/11/23 02:06:09;;;;;;;19.70;9.20;;;1.10;99.90;;;;;;5025587;28;20433;-55
2022/11/23 02:08:36;;;;;;;16.73;8.53;;;1.10;99.90;;;;;;5028015;28;20504;-56
2022/11/23 02:11:02;;;;;;;10.70;4.93;;;1.10;99.90;;;;;;5023630;28;21083;-58
2022/11/23 02:13:28;;;;;;;7.77;4.53;;;1.10;99.90;;;;;;5020488;28;20491;-56
2022/11/23 02:15:56;;;;;;;7.40;4.20;;;1.10;99.90;;;;;;5019002;28;20541;-56
2022/11/23 02:18:29;;;;;;;7.57;3.53;;;1.10;99.90;;;;;;5022189;28;20270;-56
2022/11/23 02:20:57;;;;;;;13.50;4.10;;;1.10;99.90;;;;;;5022673;28;20485;-56
2022/11/23 02:24:14;;;;;;;16.07;4.13;;;1.10;99.90;;;;;;5025933;28;20515;-55
2022/11/23 02:26:40;;;;;;;7.27;3.67;;;1.10;99.90;;;;;;5050294;28;20409;-61
2022/11/23 02:29:23;;;;;;;7.57;3.73;;;1.10;99.90;;;;;;5036658;28;20776;-56
2022/11/23 02:31:48;;;;;;;6.73;4.27;;;1.10;99.90;;;;;;5017357;28;20442;-55
2022/11/23 02:34:16;;;;;;;10.83;3.93;;;1.10;99.90;;;;;;5017432;28;20475;-55
2022/11/23 02:36:44;;;;;;;7.47;4.33;;;1.00;99.90;;;;;;5018886;28;20273;-55
2022/11/23 02:39:33;;;;;;;7.57;4.50;;;1.00;99.90;;;;;;5023036;28;20444;-56
2022/11/23 02:41:59;;;;;;;11.93;4.90;;;1.00;99.90;;;;;;5023818;28;20499;-55
2022/11/23 02:44:37;;;;;;;8.03;4.13;;;1.00;99.90;;;;;;5018872;28;20449;-56
2022/11/23 02:47:04;;;;;;;7.57;4.50;;;1.00;99.90;;;;;;5019365;28;20429;-56
2022/11/23 02:49:29;;;;;;;9.30;3.97;;;1.00;99.90;;;;;;5027410;28;20543;-56
2022/11/23 02:51:55;;;;;;;7.10;4.17;;;1.00;99.90;;;;;;5018281;28;20437;-56
2022/11/23 02:54:20;;;;;;;9.00;4.23;;;1.00;99.90;;;;;;5018813;28;20673;-55
2022/11/23 02:56:46;;;;;;;9.03;4.30;;;1.10;99.90;;;;;;5017290;28;20174;-56
2022/11/23 02:59:14;;;;;;;19.57;4.03;;;1.10;99.90;;;;;;5019056;28;20302;-56
2022/11/23 03:01:40;;;;;;;10.13;4.07;;;1.10;99.90;;;;;;5022402;28;20265;-57
2022/11/23 03:04:07;;;;;;;4.90;3.50;;;1.10;99.90;;;;;;5019602;28;20454;-55
2022/11/23 03:06:32;;;;;;;9.00;4.90;;;1.10;99.90;;;;;;5021883;28;20251;-56
2022/11/23 03:08:58;;;;;;;7.20;4.00;;;1.10;99.90;;;;;;5015060;28;20513;-56
2022/11/23 03:11:24;;;;;;;6.90;4.13;;;1.20;99.90;;;;;;5026295;28;20181;-56
2022/11/23 03:13:49;;;;;;;8.70;4.00;;;1.20;99.90;;;;;;5026057;28;20558;-56
2022/11/23 03:16:15;;;;;;;10.70;3.60;;;1.20;99.90;;;;;;5022564;28;20185;-57
2022/11/23 03:18:41;;;;;;;6.20;4.67;;;1.20;99.90;;;;;;5022492;28;20866;-56
2022/11/23 03:21:10;;;;;;;7.57;4.43;;;1.20;99.90;;;;;;5020732;28;20529;-57
2022/11/23 03:23:36;;;;;;;7.43;4.17;;;1.20;99.90;;;;;;5026464;28;20423;-57
2022/11/23 03:26:02;;;;;;;10.83;4.73;;;1.30;99.90;;;;;;5045054;28;20499;-65
2022/11/23 03:28:28;;;;;;;6.27;4.00;;;1.30;99.90;;;;;;5049743;28;20420;-60
2022/11/23 03:30:53;;;;;;;7.77;4.00;;;1.30;99.90;;;;;;5046382;28;20428;-58
2022/11/23 03:33:20;;;;;;;5.70;3.70;;;1.30;99.90;;;;;;5049621;28;20254;-56
2022/11/23 03:35:46;;;;;;;4.70;3.13;;;1.30;99.90;;;;;;5036995;28;20298;-63
2022/11/23 03:38:12;;;;;;;8.13;3.60;;;1.20;99.90;;;;;;5030751;28;20440;-56
2022/11/23 03:40:37;;;;;;;5.33;3.73;;;1.20;99.90;;;;;;5029030;28;20445;-55
2022/11/23 03:43:03;;;;;;;6.77;4.10;;;1.20;99.90;;;;;;5025516;28;20255;-55
2022/11/23 03:45:29;;;;;;;6.80;3.80;;;1.20;99.90;;;;;;5028222;28;20202;-56
2022/11/23 03:47:54;;;;;;;7.97;3.90;;;1.20;99.90;;;;;;5027514;28;20486;-56
2022/11/23 03:50:20;;;;;;;10.53;4.90;;;1.20;99.90;;;;;;5022258;28;20322;-57
2022/11/23 03:52:48;;;;;;;6.50;3.97;;;1.20;99.90;;;;;;5030783;28;20168;-55
2022/11/23 03:55:14;;;;;;;7.37;4.00;;;1.20;99.90;;;;;;5026391;28;20198;-56
2022/11/23 03:57:40;;;;;;;4.47;3.53;;;1.30;99.90;;;;;;5030653;28;21079;-56
2022/11/23 04:00:07;;;;;;;8.47;3.70;;;1.30;99.90;;;;;;5023545;28;20204;-55
2022/11/23 04:02:32;;;;;;;9.63;4.60;;;1.30;99.90;;;;;;5028125;28;20275;-57
2022/11/23 04:04:58;;;;;;;13.87;4.43;;;1.30;99.90;;;;;;5017603;28;20456;-56
2022/11/23 04:07:24;;;;;;;5.43;3.83;;;1.30;99.90;;;;;;5027440;28;20638;-56
2022/11/23 04:09:49;;;;;;;9.73;3.90;;;1.30;99.90;;;;;;5028549;28;20179;-56
2022/11/23 04:12:15;;;;;;;10.60;3.73;;;1.30;99.90;;;;;;5028603;28;20206;-57
2022/11/23 04:14:40;;;;;;;4.77;3.27;;;1.30;99.90;;;;;;5024430;28;20241;-56
2022/11/23 04:17:08;;;;;;;11.33;4.07;;;1.30;99.90;;;;;;5018835;28;21006;-57
2022/11/23 04:19:34;;;;;;;4.40;3.57;;;1.30;99.90;;;;;;5022545;28;20600;-56
2022/11/23 04:21:59;;;;;;;7.67;3.53;;;1.30;99.90;;;;;;5043642;28;20552;-56
2022/11/23 04:24:25;;;;;;;7.70;3.80;;;1.30;99.90;;;;;;5026126;28;20201;-56
2022/11/23 04:26:51;;;;;;;6.20;3.63;;;1.30;99.90;;;;;;5037749;28;20263;-57
2022/11/23 04:29:16;;;;;;;8.13;3.40;;;1.30;99.90;;;;;;5023640;28;20183;-57
2022/11/23 04:31:42;;;;;;;4.77;3.37;;;1.30;99.90;;;;;;5028325;28;20512;-57
2022/11/23 04:34:08;;;;;;;8.97;3.10;;;1.30;99.90;;;;;;5021010;28;20208;-56
2022/11/23 04:36:34;;;;;;;6.57;3.50;;;1.30;99.90;;;;;;5025352;28;20595;-56
2022/11/23 04:39:03;;;;;;;8.33;3.90;;;1.40;99.90;;;;;;5026248;28;20434;-56
2022/11/23 04:41:29;;;;;;;4.63;3.73;;;1.40;99.90;;;;;;5021074;28;20231;-55
2022/11/23 04:43:54;;;;;;;7.27;3.77;;;1.50;99.90;;;;;;5025903;28;20433;-56
2022/11/23 04:46:20;;;;;;;4.83;2.90;;;1.50;99.90;;;;;;5025293;28;20951;-54
2022/11/23 04:48:46;;;;;;;4.63;3.50;;;1.50;99.90;;;;;;5033390;28;20219;-55
2022/11/23 04:51:12;;;;;;;7.27;3.40;;;1.50;99.90;;;;;;5045497;28;20178;-57
2022/11/23 04:53:39;;;;;;;5.50;4.20;;;1.50;99.90;;;;;;5046390;28;20204;-56
2022/11/23 04:56:05;;;;;;;9.80;3.70;;;1.50;99.90;;;;;;5029519;28;20792;-55
2022/11/23 04:58:31;;;;;;;12.50;3.63;;;1.50;99.90;;;;;;5023700;28;20456;-54
2022/11/23 05:00:57;;;;;;;6.80;3.90;;;1.50;99.90;;;;;;5019651;28;20466;-55
2022/11/23 05:03:23;;;;;;;5.80;3.50;;;1.50;99.90;;;;;;5038031;28;20189;-59
2022/11/23 05:05:49;;;;;;;5.90;4.17;;;1.50;99.90;;;;;;5039244;28;20473;-61
2022/11/23 05:08:14;;;;;;;10.23;4.00;;;1.50;99.90;;;;;;5040290;28;20184;-58
2022/11/23 05:10:40;;;;;;;5.30;4.03;;;1.40;99.90;;;;;;5030652;28;20274;-57
2022/11/23 05:13:06;;;;;;;9.80;4.40;;;1.40;99.90;;;;;;5021671;28;20186;-54
2022/11/23 05:15:31;;;;;;;4.53;3.60;;;1.40;99.90;;;;;;5018171;28;20203;-54
2022/11/23 05:18:05;;;;;;;7.07;4.40;;;1.40;99.90;;;;;;5026996;28;20190;-55
2022/11/23 05:20:33;;;;;;;4.63;3.50;;;1.40;99.90;;;;;;5025692;28;20183;-54
2022/11/23 05:22:59;;;;;;;7.67;4.53;;;1.40;99.90;;;;;;5020812;28;20523;-54
2022/11/23 05:25:25;;;;;;;8.60;4.30;;;1.40;99.90;;;;;;5022382;28;20839;-55
2022/11/23 05:27:51;;;;;;;8.87;4.50;;;1.40;99.90;;;;;;5018640;28;20576;-57
2022/11/23 05:30:18;;;;;;;9.30;4.83;;;1.40;99.90;;;;;;5021848;28;20437;-54
2022/11/23 05:32:43;;;;;;;7.80;4.53;;;1.40;99.90;;;;;;5022758;28;20179;-55
2022/11/23 05:35:09;;;;;;;7.10;3.70;;;1.40;99.90;;;;;;5013257;28;20462;-54
2022/11/23 05:37:35;;;;;;;8.33;4.50;;;1.40;99.90;;;;;;5014982;28;20187;-55
2022/11/23 05:40:01;;;;;;;4.93;3.53;;;1.40;99.90;;;;;;5016599;28;21113;-54
2022/11/23 05:42:26;;;;;;;7.23;4.47;;;1.40;99.90;;;;;;5021766;28;20255;-54
2022/11/23 05:44:52;;;;;;;11.90;4.90;;;1.40;99.90;;;;;;5023902;28;20298;-54
2022/11/23 05:47:18;;;;;;;7.67;4.40;;;1.40;99.90;;;;;;5026106;28;20395;-55
2022/11/23 05:49:43;;;;;;;9.10;3.70;;;1.40;99.90;;;;;;5024677;28;20202;-55
2022/11/23 05:52:11;;;;;;;8.30;4.10;;;1.40;99.90;;;;;;5021837;28;20180;-55
2022/11/23 05:54:40;;;;;;;13.10;6.97;;;1.50;99.90;;;;;;5019813;28;20562;-54
2022/11/23 05:57:05;;;;;;;11.40;5.50;;;1.50;99.90;;;;;;5023926;28;20430;-55
2022/11/23 05:59:31;;;;;;;10.47;5.27;;;1.50;99.90;;;;;;5022578;28;20495;-55
2022/11/23 06:01:59;;;;;;;4.23;3.40;;;1.60;99.90;;;;;;5025425;28;20234;-54
2022/11/23 06:04:25;;;;;;;3.97;3.57;;;1.60;99.90;;;;;;5028015;28;20192;-54
2022/11/23 06:06:53;;;;;;;5.00;3.50;;;1.60;99.90;;;;;;5025717;28;20942;-55
2022/11/23 06:09:21;;;;;;;8.20;4.37;;;1.60;99.90;;;;;;5026328;28;20842;-55
2022/11/23 06:11:50;;;;;;;4.77;3.73;;;1.60;99.90;;;;;;5026109;28;20760;-54
2022/11/23 06:14:16;;;;;;;7.43;3.57;;;1.70;99.90;;;;;;5026869;28;20552;-54
2022/11/23 06:16:41;;;;;;;6.80;3.60;;;1.70;99.90;;;;;;5015075;28;20435;-55
2022/11/23 06:19:07;;;;;;;10.37;4.47;;;1.70;99.90;;;;;;5026130;28;20434;-55
2022/11/23 06:21:32;;;;;;;7.07;4.13;;;1.70;99.90;;;;;;5025808;28;20740;-55
2022/11/23 06:23:58;;;;;;;13.03;5.43;;;1.70;99.90;;;;;;5027946;28;20221;-55
2022/11/23 06:26:24;;;;;;;14.27;5.30;;;1.70;99.90;;;;;;5029594;28;20160;-55
2022/11/23 06:28:50;;;;;;;12.57;6.47;;;1.70;99.90;;;;;;5047213;28;20176;-56
2022/11/23 06:31:16;;;;;;;7.77;5.67;;;1.80;99.90;;;;;;5047817;28;20438;-58
2022/11/23 06:33:41;;;;;;;8.87;5.40;;;1.80;99.90;;;;;;5036989;28;20209;-56
2022/11/23 06:36:09;;;;;;;11.40;6.00;;;1.80;99.90;;;;;;5045199;28;20273;-54
2022/11/23 06:38:38;;;;;;;13.67;5.50;;;1.80;99.90;;;;;;5025975;28;20273;-54
2022/11/23 06:41:04;;;;;;;16.03;6.37;;;1.80;99.90;;;;;;5027322;28;20429;-54
2022/11/23 06:43:29;;;;;;;10.47;6.70;;;1.80;99.90;;;;;;5023604;28;20469;-54
2022/11/23 06:45:56;;;;;;;12.37;5.70;;;1.90;99.90;;;;;;5037237;22;20489;-59
2022/11/23 06:48:22;;;;;;;13.53;4.77;;;1.90;99.90;;;;;;5028953;28;20174;-58
2022/11/23 06:50:48;;;;;;;5.80;4.27;;;1.90;99.90;;;;;;5024398;28;20466;-60
2022/11/23 06:53:13;;;;;;;9.90;4.67;;;1.90;99.90;;;;;;5028213;28;20456;-61
2022/11/23 06:55:39;;;;;;;9.40;4.13;;;1.90;99.90;;;;;;5026230;28;20356;-58
2022/11/23 06:58:06;;;;;;;8.97;4.50;;;1.90;99.90;;;;;;5028190;28;20178;-58
2022/11/23 07:00:32;;;;;;;12.17;5.10;;;1.90;99.90;;;;;;5009030;28;20167;-58
2022/11/23 07:02:59;;;;;;;17.70;6.00;;;1.90;99.90;;;;;;5019786;28;20848;-58
2022/11/23 07:05:25;;;;;;;15.33;5.70;;;1.90;99.90;;;;;;5003629;28;20460;-60
2022/11/23 07:07:51;;;;;;;22.13;7.87;;;1.90;99.90;;;;;;5023230;28;20462;-61
2022/11/23 07:10:17;;;;;;;20.00;6.70;;;1.90;99.90;;;;;;5023658;28;20512;-59
2022/11/23 07:12:43;;;;;;;19.13;7.60;;;1.90;99.90;;;;;;5025507;28;20188;-59
2022/11/23 07:15:09;;;;;;;13.17;6.67;;;1.90;99.90;;;;;;5026474;28;20253;-61
2022/11/23 07:17:39;;;;;;;13.90;6.70;;;1.90;99.90;;;;;;5023357;28;20980;-59
2022/11/23 07:20:07;;;;;;;15.43;6.63;;;1.90;99.90;;;;;;5029858;28;20487;-59
2022/11/23 07:22:34;;;;;;;15.07;6.73;;;1.90;99.90;;;;;;5032449;28;20490;-57
2022/11/23 07:25:02;;;;;;;16.90;7.53;;;1.90;99.90;;;;;;5024317;28;20953;-57
2022/11/23 07:27:28;;;;;;;24.23;7.30;;;1.90;99.90;;;;;;5024605;28;20433;-60
2022/11/23 07:29:53;;;;;;;23.60;7.93;;;1.90;99.90;;;;;;5026942;28;20427;-60
2022/11/23 07:32:19;;;;;;;28.70;9.33;;;2.00;99.90;;;;;;5028379;28;20180;-60
2022/11/23 07:34:44;;;;;;;23.37;8.30;;;2.00;99.90;;;;;;5026738;28;20606;-58
2022/11/23 07:37:10;;;;;;;22.23;9.40;;;2.00;99.90;;;;;;5027383;28;20202;-58
2022/11/23 07:39:35;;;;;;;32.30;9.87;;;2.00;99.90;;;;;;5030877;28;20175;-59
2022/11/23 07:42:01;;;;;;;25.77;8.97;;;2.00;99.90;;;;;;5010364;28;20223;-60
2022/11/23 07:44:27;;;;;;;23.43;9.37;;;2.00;99.90;;;;;;5006781;28;20553;-60
2022/11/23 07:46:53;;;;;;;25.80;9.47;;;2.10;99.90;;;;;;5022898;28;20211;-60
2022/11/23 07:49:18;;;;;;;23.63;9.00;;;2.10;99.90;;;;;;5025075;28;20285;-58
2022/11/23 07:51:44;;;;;;;20.93;8.00;;;2.10;99.90;;;;;;5026569;28;20844;-59
2022/11/23 07:54:10;;;;;;;21.80;7.33;;;2.20;99.90;;;;;;5025540;28;20192;-58
2022/11/23 07:56:35;;;;;;;22.00;7.23;;;2.20;99.90;;;;;;5024593;28;20689;-58
2022/11/23 07:59:01;;;;;;;20.80;6.90;;;2.20;99.90;;;;;;5026866;28;20233;-57
2022/11/23 08:01:26;;;;;;;19.17;8.93;;;2.20;99.90;;;;;;5024385;28;20198;-58
2022/11/23 08:03:52;;;;;;;20.27;8.67;;;2.30;99.90;;;;;;5023373;28;20176;-58
2022/11/23 08:06:17;;;;;;;18.60;8.00;;;2.40;99.90;;;;;;5027326;28;20196;-57
2022/11/23 08:08:43;;;;;;;22.47;9.00;;;2.40;99.90;;;;;;5028127;28;20959;-58
2022/11/23 08:11:13;;;;;;;26.47;10.47;;;2.40;99.90;;;;;;5021988;28;20353;-58
2022/11/23 08:13:39;;;;;;;19.70;9.03;;;2.50;99.90;;;;;;5031374;28;20183;-57
2022/11/23 08:16:05;;;;;;;22.07;10.00;;;2.50;99.90;;;;;;5032356;28;21002;-58
2022/11/23 08:18:30;;;;;;;18.27;8.47;;;2.60;99.90;;;;;;5029829;28;20274;-58
2022/11/23 08:20:59;;;;;;;27.60;10.20;;;2.60;99.90;;;;;;5023829;28;20221;-58
2022/11/23 08:23:25;;;;;;;18.70;9.23;;;2.70;99.90;;;;;;5031963;28;20169;-57
2022/11/23 08:25:50;;;;;;;14.63;7.90;;;2.70;99.90;;;;;;5030858;28;20826;-56
2022/11/23 08:28:16;;;;;;;19.53;8.27;;;2.80;99.90;;;;;;5028855;28;20175;-58
2022/11/23 08:30:42;;;;;;;18.73;8.27;;;2.90;99.90;;;;;;5031674;28;20214;-58
2022/11/23 08:33:08;;;;;;;25.47;8.13;;;2.90;99.90;;;;;;5024016;28;20802;-58
2022/11/23 08:35:38;;;;;;;15.73;7.33;;;3.00;99.90;;;;;;5030343;28;20979;-58
2022/11/23 08:38:05;;;;;;;21.23;8.30;;;3.10;99.90;;;;;;5029379;28;20483;-58
2022/11/23 08:40:31;;;;;;;17.20;8.03;;;3.30;99.90;;;;;;5027291;28;20500;-57
2022/11/23 08:42:57;;;;;;;18.57;8.60;;;3.40;99.90;;;;;;5012436;28;20462;-58
2022/11/23 08:45:23;;;;;;;13.97;6.70;;;3.50;99.90;;;;;;5015086;28;20458;-58
2022/11/23 08:47:49;;;;;;;22.20;8.53;;;3.60;99.90;;;;;;5028403;28;20661;-58
2022/11/23 08:50:18;;;;;;;15.73;8.87;;;3.70;99.90;;;;;;5023735;28;20562;-58
2022/11/23 08:52:44;;;;;;;17.40;8.10;;;3.70;99.90;;;;;;5023749;28;20808;-58
2022/11/23 08:55:10;;;;;;;14.00;7.20;;;3.80;99.90;;;;;;5021555;28;20435;-58
2022/11/23 08:57:35;;;;;;;13.83;7.30;;;3.90;99.90;;;;;;5028521;28;20182;-57
2022/11/23 09:00:03;;;;;;;23.10;7.80;;;4.00;99.90;;;;;;5023631;28;20431;-57
2022/11/23 09:02:28;;;;;;;19.63;8.40;;;4.00;99.90;;;;;;5023955;28;20256;-57
2022/11/23 09:04:54;;;;;;;18.30;9.23;;;4.10;99.90;;;;;;5024918;28;20438;-58
2022/11/23 09:07:19;;;;;;;17.57;8.50;;;4.10;99.90;;;;;;5020732;28;20180;-59
2022/11/23 09:09:45;;;;;;;16.90;8.17;;;4.20;99.90;;;;;;5023003;28;20680;-59
2022/11/23 09:12:11;;;;;;;13.60;8.37;;;4.20;99.90;;;;;;5021578;28;20195;-58
2022/11/23 09:14:37;;;;;;;11.43;7.30;;;4.20;99.90;;;;;;5028784;28;20176;-58
2022/11/23 09:17:03;;;;;;;13.23;6.90;;;4.20;99.90;;;;;;5017928;28;20442;-58
2022/11/23 09:19:29;;;;;;;19.77;8.80;;;4.30;99.90;;;;;;5027900;28;20259;-58
2022/11/23 09:21:54;;;;;;;35.30;12.17;;;4.30;99.90;;;;;;5025141;28;21239;-58
2022/11/23 09:24:24;;;;;;;24.90;10.83;;;4.40;99.90;;;;;;5021194;28;20176;-60
2022/11/23 09:26:50;;;;;;;24.73;11.00;;;4.40;99.90;;;;;;5022901;28;21187;-58
2022/11/23 09:29:15;;;;;;;27.80;11.67;;;4.40;99.90;;;;;;5029057;28;20435;-58
2022/11/23 09:31:41;;;;;;;25.60;12.10;;;4.40;99.90;;;;;;5028072;28;20204;-58
2022/11/23 09:34:09;;;;;;;30.03;11.90;;;4.40;99.90;;;;;;5021749;28;20176;-58
2022/11/23 09:36:34;;;;;;;25.43;12.23;;;4.60;99.90;;;;;;5028632;28;20666;-58
2022/11/23 09:39:00;;;;;;;27.70;10.23;;;4.70;99.90;;;;;;5029434;28;20422;-58
2022/11/23 09:41:46;;;;;;;19.10;9.73;;;4.80;99.90;;;;;;5023357;28;20187;-58
2022/11/23 09:44:36;;;;;;;21.30;9.63;;;4.80;99.90;;;;;;5024942;28;20638;-58
2022/11/23 09:47:40;;;;;;;33.60;10.57;;;4.90;99.90;;;;;;5024268;28;20462;-58
2022/11/23 09:50:06;;;;;;;21.80;11.67;;;4.90;99.90;;;;;;5026394;28;20434;-58
2022/11/23 09:52:33;;;;;;;22.87;11.47;;;4.90;99.90;;;;;;5009374;28;20441;-58
2022/11/23 09:55:26;;;;;;;22.27;10.97;;;5.00;99.90;;;;;;5027079;28;20180;-58
2022/11/23 09:57:59;;;;;;;21.47;9.93;;;5.10;99.90;;;;;;5025895;28;20444;-58
2022/11/23 10:00:35;;;;;;;23.70;10.63;;;5.10;99.90;;;;;;5023677;28;20855;-58
2022/11/23 10:03:01;;;;;;;32.53;14.63;;;5.00;99.90;;;;;;5022329;28;20442;-58
2022/11/23 10:05:32;;;;;;;28.80;12.60;;;4.90;99.90;;;;;;5007742;28;20944;-59
2022/11/23 10:08:09;;;;;;;28.93;11.90;;;4.80;99.90;;;;;;5024607;28;20169;-58
2022/11/23 10:10:45;;;;;;;29.00;12.20;;;4.80;99.90;;;;;;5023252;28;20457;-58
2022/11/23 10:13:41;;;;;;;23.27;11.47;;;4.70;99.90;;;;;;5021467;28;20848;-57
2022/11/23 10:16:39;;;;;;;24.03;11.07;;;4.70;99.90;;;;;;5022634;28;20453;-59
2022/11/23 10:19:37;;;;;;;24.57;10.70;;;4.70;99.90;;;;;;5024745;28;20441;-57
2022/11/23 10:22:17;;;;;;;21.53;10.77;;;4.80;99.90;;;;;;5022292;28;20451;-58
2022/11/23 10:24:48;;;;;;;20.90;9.40;;;4.90;99.90;;;;;;5023015;28;20418;-58
2022/11/23 10:27:20;;;;;;;21.97;9.60;;;5.00;99.90;;;;;;5023909;28;20480;-58
2022/11/23 10:29:46;;;;;;;25.50;9.67;;;5.20;99.90;;;;;;5019304;28;20978;-58
2022/11/23 10:32:41;;;;;;;23.43;8.50;;;5.50;99.90;;;;;;5021712;28;20450;-59
2022/11/23 10:35:21;;;;;;;22.70;9.87;;;5.80;99.90;;;;;;5012224;28;20430;-59
2022/11/23 10:37:47;;;;;;;7.50;4.30;;;6.00;99.90;;;;;;5014432;28;20517;-58
2022/11/23 10:40:24;;;;;;;9.13;3.10;;;6.30;99.90;;;;;;5024164;28;20506;-57
2022/11/23 10:42:55;;;;;;;6.80;2.80;;;6.50;99.90;;;;;;5018350;28;20202;-55
2022/11/23 10:45:23;;;;;;;2.77;2.23;;;6.80;99.90;;;;;;5023829;28;20554;-55
2022/11/23 10:47:54;;;;;;;3.57;2.57;;;7.00;99.90;;;;;;5029704;28;21056;-58
2022/11/23 10:50:36;;;;;;;4.43;2.20;;;7.10;99.90;;;;;;5007446;28;21160;-58
2022/11/23 10:53:04;;;;;;;6.57;3.00;;;7.10;99.90;;;;;;5003707;28;20426;-59
2022/11/23 10:56:07;;;;;;;4.30;2.50;;;7.10;99.90;;;;;;5026502;28;20461;-58
2022/11/23 10:58:42;;;;;;;11.83;3.00;;;7.20;99.90;;;;;;5020703;28;20423;-58
2022/11/23 11:01:19;;;;;;;7.53;2.73;;;7.40;99.90;;;;;;5024758;28;20406;-59
2022/11/23 11:03:44;;;;;;;4.73;2.77;;;7.50;99.80;;;;;;5029074;28;20421;-58
2022/11/23 11:06:10;;;;;;;4.27;2.20;;;7.60;98.80;;;;;;5029533;28;20484;-58
2022/11/23 11:08:47;;;;;;;4.90;2.90;;;7.80;99.50;;;;;;5021886;28;20182;-58
2022/11/23 11:11:30;;;;;;;10.20;2.77;;;7.90;98.20;;;;;;5026461;28;20170;-58
2022/11/23 11:14:17;;;;;;;2.87;2.50;;;8.10;96.90;;;;;;5021377;28;20975;-59
2022/11/23 11:16:48;;;;;;;2.93;2.53;;;8.30;96.00;;;;;;5020706;28;20450;-58
2022/11/23 11:19:31;;;;;;;5.50;2.40;;;8.50;94.20;;;;;;5015563;28;20403;-59
2022/11/23 11:21:58;;;;;;;3.67;1.90;;;8.60;92.10;;;;;;5028904;28;20442;-58
2022/11/23 11:24:32;;;;;;;6.97;2.17;;;8.60;87.90;;;;;;5022601;28;20437;-58
2022/11/23 11:27:01;;;;;;;6.43;2.47;;;8.60;84.50;;;;;;5024843;28;20450;-58
2022/11/23 11:29:30;;;;;;;5.50;2.40;;;8.60;83.80;;;;;;5028558;28;20498;-59
2022/11/23 11:31:58;;;;;;;3.50;2.20;;;8.70;83.80;;;;;;5026662;28;20938;-58
2022/11/23 11:35:01;;;;;;;4.90;2.67;;;8.70;84.30;;;;;;5014606;28;20438;-59
2022/11/23 11:37:36;;;;;;;3.23;1.90;;;8.70;86.70;;;;;;5020143;28;20536;-58
2022/11/23 11:40:17;;;;;;;4.60;2.00;;;8.70;82.10;;;;;;5024159;28;20438;-58
2022/11/23 11:42:49;;;;;;;2.47;2.27;;;8.70;76.40;;;;;;5020138;28;20454;-57
2022/11/23 11:45:30;;;;;;;3.83;1.80;;;8.60;79.00;;;;;;5023408;28;20460;-59
2022/11/23 11:48:02;;;;;;;2.57;1.70;;;8.60;79.80;;;;;;5017001;28;20430;-60
2022/11/23 11:50:30;;;;;;;3.43;1.90;;;8.60;78.50;;;;;;5026749;28;20500;-58
2022/11/23 11:53:03;;;;;;;8.93;2.27;;;8.40;80.80;;;;;;5016491;28;20533;-58
2022/11/23 11:55:51;;;;;;;4.80;2.30;;;8.30;82.50;;;;;;5023043;28;20504;-59
2022/11/23 11:58:18;;;;;;;3.00;2.20;;;8.10;85.20;;;;;;5020058;28;22623;-58
2022/11/23 12:00:46;;;;;;;4.40;2.13;;;8.00;89.30;;;;;;5017362;28;20436;-59
2022/11/23 12:03:41;;;;;;;6.40;2.80;;;7.90;89.50;;;;;;5020204;28;20470;-58
2022/11/23 12:06:47;;;;;;;2.30;2.07;;;7.70;89.40;;;;;;5019583;28;20443;-59
2022/11/23 12:09:21;;;;;;;6.43;2.20;;;7.70;90.90;;;;;;4966515;28;20521;-59
2022/11/23 12:11:47;;;;;;;2.70;1.93;;;7.60;92.20;;;;;;5023928;28;20442;-60
2022/11/23 12:14:15;;;;;;;5.60;2.67;;;7.50;93.70;;;;;;5025677;28;20457;-59
2022/11/23 12:17:10;;;;;;;4.20;2.00;;;7.50;94.10;;;;;;5023401;28;20453;-59
2022/11/23 12:19:55;;;;;;;9.20;3.00;;;7.40;94.70;;;;;;5017778;28;20526;-59
2022/11/23 12:22:42;;;;;;;5.47;2.03;;;7.40;95.00;;;;;;5024916;28;20449;-59
2022/11/23 12:25:11;;;;;;;2.73;1.87;;;7.40;95.90;;;;;;5027857;28;20426;-59
2022/11/23 12:27:54;;;;;;;3.80;2.77;;;7.40;96.20;;;;;;5019485;28;20438;-59
2022/11/23 12:30:41;;;;;;;7.83;2.20;;;7.30;93.60;;;;;;5026522;28;20433;-59
2022/11/23 12:33:26;;;;;;;7.80;2.43;;;7.20;94.30;;;;;;5024416;28;20431;-59
2022/11/23 12:35:51;;;;;;;7.27;3.10;;;7.20;94.60;;;;;;5008814;28;20446;-59
2022/11/23 12:38:46;;;;;;;7.80;2.60;;;7.20;95.70;;;;;;5028807;28;20438;-59
2022/11/23 12:41:52;;;;;;;4.47;2.43;;;7.20;95.10;;;;;;5004380;28;20184;-59
2022/11/23 12:44:42;;;;;;;5.10;3.30;;;7.20;93.30;;;;;;5027221;28;20422;-60
2022/11/23 12:47:34;;;;;;;6.50;3.37;;;7.20;92.10;;;;;;5026697;28;21019;-59
2022/11/23 12:50:24;;;;;;;5.33;2.80;;;7.20;90.10;;;;;;5015326;28;20426;-59
2022/11/23 12:52:59;;;;;;;5.27;2.50;;;7.20;91.30;;;;;;5029103;28;20433;-60
2022/11/23 12:55:41;;;;;;;12.70;2.40;;;7.20;91.00;;;;;;5025211;28;20459;-59
2022/11/23 12:58:16;;;;;;;9.73;2.57;;;7.30;92.00;;;;;;5024813;28;20498;-59
2022/11/23 13:00:52;;;;;;;3.23;2.27;;;7.30;90.60;;;;;;5015007;28;20948;-62
2022/11/23 13:03:56;;;;;;;10.40;2.70;;;7.30;90.30;;;;;;5025921;28;20465;-59